Current Weather

Matecana

Matecana, Colombia (SKPE)

Report from: Tuesday, May 21, 2024 11:00 AM -05
Current time: Tuesday, May 21, 2024 11:22 AM -05

Nearby weather – Weather history – Daily summaries
Weather forecast

Temperature25.0°C (77.0°F)
Dew point22.0°C (71.6°F)
Winds 8 kts (4.1 m/s, 9.2 mph) Vrb
Winds variableWinds variable from West (280°) to North (350°)
Visibility6.2 mi. (10 km)
Clouds Scattered clouds 2,000 ft. (610 m)
Altimeter30.00 in.Hg (1016 mB)
Relative humidity83 %
Density altitude1,421 ft. (433 m)
Flight conditions Visual Meteorological Conditions
Raw dataSKPE 211600Z 31008KT 280V350 9999 SCT020 25/22 Q1016
An error has occurred. This application may no longer respond until reloaded. Reload 🗙